WetterOnline ( https://www.wetteronline.de )

Wetter aktuell Ahaus

Aktuelles Wetter: Ahaus (46m)

6-stündlich | Neueste Meldungen
Ortszeit Temperatur Wetter
Mo, 13.07. 8:00 13.3° C bedeckt
Mo, 13.07. 2:00 10.8° C leicht bewölkt
So, 12.07. 20:00 19.5° C leicht bewölkt
So, 12.07. 14:00 19.1° C fast wolkenlos
So, 12.07. 8:00 12.4° C wolkenlos
So, 12.07. 2:00 9.1° C wolkenlos
Sa, 11.07. 20:00 16.8° C leicht bewölkt
Sa, 11.07. 14:00 18.3° C wolkig
Ortszeit Temperatur Wetter
Mo, 13.07. 13:10 22.1° C fast wolkenlos
Mo, 13.07. 13:00 21.2° C leicht bewölkt
Mo, 13.07. 12:50 21.2° C leicht bewölkt
Mo, 13.07. 12:40 21.9° C wolkig
Mo, 13.07. 12:30 21.3° C leicht bewölkt
Mo, 13.07. 12:20 21.3° C leicht bewölkt
Mo, 13.07. 12:00 20.9° C leicht bewölkt
Mo, 13.07. 11:30 21.1° C wolkenlos
Mo, 13.07. 11:00 20.7° C wolkenlos
Mo, 13.07. 10:30 19.8° C wolkenlos
Mo, 13.07. 10:00 19.5° C wolkenlos
Ortszeit Relative Feuchte Sichtweite
Mo, 13.07. 8:00 85% 23 km
Mo, 13.07. 2:00 90% 30 km
So, 12.07. 20:00 45% 70 km
So, 12.07. 14:00 46% 35 km
So, 12.07. 8:00 84% 15 km
So, 12.07. 2:00 96% 13 km
Sa, 11.07. 20:00 55% 70 km
Sa, 11.07. 14:00 49% 45 km
Ortszeit Relative Feuchte Sichtweite
Mo, 13.07. 13:10 45% -
Mo, 13.07. 13:00 44% 45 km
Mo, 13.07. 12:50 44% -
Mo, 13.07. 12:40 45% -
Mo, 13.07. 12:30 43% 40 km
Mo, 13.07. 12:20 43% -
Mo, 13.07. 12:00 42% 40 km
Mo, 13.07. 11:30 48% 45 km
Mo, 13.07. 11:00 42% 60 km
Mo, 13.07. 10:30 46% 55 km
Mo, 13.07. 10:00 55% 30 km
Ortszeit Niederschlagsmenge Niederschlagsart
Mo, 13.07. 8:00 0.0 l/m2 in 12 Std. -
Mo, 13.07. 2:00 0.0 l/m2 in 6 Std. -
So, 12.07. 20:00 0.0 l/m2 in 12 Std. -
So, 12.07. 14:00 0.0 l/m2 in 6 Std. -
So, 12.07. 8:00 0.0 l/m2 in 12 Std. -
So, 12.07. 2:00 0.0 l/m2 in 6 Std. -
Sa, 11.07. 20:00 0.1 l/m2 in 12 Std. Regen
Sa, 11.07. 14:00 0.0 l/m2 in 6 Std. -
Ortszeit Niederschlagsmenge Niederschlagsart
Mo, 13.07. 13:10 keine Meldung -
Mo, 13.07. 13:00 0.0 l/m2 in 1 Std. -
Mo, 13.07. 12:50 keine Meldung -
Mo, 13.07. 12:40 keine Meldung -
Mo, 13.07. 12:30 0.0 l/m2 in 1 Std. -
Mo, 13.07. 12:20 keine Meldung -
Mo, 13.07. 12:00 0.0 l/m2 in 1 Std. -
Mo, 13.07. 11:30 0.0 l/m2 in 1 Std. -
Mo, 13.07. 11:00 0.0 l/m2 in 1 Std. -
Mo, 13.07. 10:30 0.0 l/m2 in 1 Std. -
Mo, 13.07. 10:00 0.0 l/m2 in 1 Std. -
Ortszeit Stärke Spitze Richtung
km/h Bft. km/h Grad Sektor
Mo, 13.07. 8:00 7 2 11 20° N
Mo, 13.07. 2:00 6 1 15 30° NO
So, 12.07. 20:00 7 2 22 360° N
So, 12.07. 14:00 9 2 19 310° NW
So, 12.07. 8:00 9 2 28 350° N
So, 12.07. 2:00 6 1 19 230° SW
Sa, 11.07. 20:00 7 2 24 310° NW
Sa, 11.07. 14:00 11 2 22 250° W
Ortszeit Stärke Spitze Richtung
km/h Bft. km/h Grad Sektor
Mo, 13.07. 13:10 6 1 - 60° NO
Mo, 13.07. 13:00 7 2 14 250° W
Mo, 13.07. 12:50 7 2 - 250° W
Mo, 13.07. 12:40 7 2 - 270° W
Mo, 13.07. 12:30 7 2 11 270° W
Mo, 13.07. 12:20 7 2 - 270° W
Mo, 13.07. 12:00 7 2 11 10° N
Mo, 13.07. 11:30 7 2 11 60° NO
Mo, 13.07. 11:00 4 1 11 170° S
Mo, 13.07. 10:30 6 1 11 70° O
Mo, 13.07. 10:00 7 2 14 70° O
Ortszeit Untergrenze Bedeckung Gattung
total tief tief mittel hoch
Mo, 13.07. 8:00 6900 m 8/8 8/8 - - -
Mo, 13.07. 2:00 7800 m 6/8 0/8 - - -
So, 12.07. 20:00 8100 m 7/8 0/8 - - -
So, 12.07. 14:00 1500 m 1/8 1/8 - - -
So, 12.07. 8:00 - 0/8 0/8 - - -
So, 12.07. 2:00 - 0/8 0/8 - - -
Sa, 11.07. 20:00 3000 m 2/8 2/8 - - -
Sa, 11.07. 14:00 1230 m 5/8 4/8 - - -
Ortszeit Bedeckungsgrad in Achtel und Wolkenuntergrenze
Mo, 13.07. 13:10 1(1500m)
Mo, 13.07. 13:00 3(1500m)
Mo, 13.07. 12:50 3(1500m)
Mo, 13.07. 12:40 5(1500m)
Mo, 13.07. 12:30 3(1500m)
Mo, 13.07. 12:20 3(1500m)
Mo, 13.07. 12:00 2(1500m)
Mo, 13.07. 11:30 keine Wolken
Mo, 13.07. 11:00 keine Wolken
Mo, 13.07. 10:30 keine Wolken
Mo, 13.07. 10:00 keine Wolken
Ortszeit Luftdruck NN (hPa) Tendenz (hPa in 3 Std.)
Mo, 13.07. 8:00 1025 - 0,5
Mo, 13.07. 2:00 1027 - 0,4
So, 12.07. 20:00 1027 - 0,6
So, 12.07. 14:00 1029 + 0,1
So, 12.07. 8:00 1028 + 1,0
So, 12.07. 2:00 1027 + 0,4
Sa, 11.07. 20:00 1026 + 0,4
Sa, 11.07. 14:00 1024 + 0,3
Ortszeit Luftdruck NN (hPa) Tendenz (hPa in 3 Std.)
Mo, 13.07. 13:10 1023 keine Meldung
Mo, 13.07. 13:00 1023 - 1,3
Mo, 13.07. 12:50 1023 keine Meldung
Mo, 13.07. 12:40 1024 keine Meldung
Mo, 13.07. 12:30 1024 - 1,1
Mo, 13.07. 12:20 1024 keine Meldung
Mo, 13.07. 12:00 1024 - 0,9
Mo, 13.07. 11:30 1024 - 0,8
Mo, 13.07. 11:00 1024 - 0,8
Mo, 13.07. 10:30 1025 - 0,7
Mo, 13.07. 10:00 1025 - 0,6
Ortszeit Schneehöhe (cm)
Mo, 13.07. 8:00 -
Mo, 13.07. 2:00 -
So, 12.07. 20:00 -
So, 12.07. 14:00 -
So, 12.07. 8:00 -
So, 12.07. 2:00 -
Sa, 11.07. 20:00 -
Sa, 11.07. 14:00 -
Ortszeit Schneehöhe (cm)
Mo, 13.07. 13:10 -
Mo, 13.07. 13:00 -
Mo, 13.07. 12:50 -
Mo, 13.07. 12:40 -
Mo, 13.07. 12:30 -
Mo, 13.07. 12:20 -
Mo, 13.07. 12:00 -
Mo, 13.07. 11:30 -
Mo, 13.07. 11:00 -
Mo, 13.07. 10:30 -
Mo, 13.07. 10:00 -
Link zu dieser Seite / Seite empfehlen

Das Wetter in ...